Time;durP1;ratioP1;P1;durP2;ratioP2;P2;SDS_P1;SDS_P2;PMS_P1;PMS_P2;Temp;Humidity;BMP_temperature;BMP_pressure;BME280_temperature;BME280_humidity;BME280_pressure;Samples;Min_cycle;Max_cycle;Signal;HPM_P1;HPM_P2
2023/02/25 00:01:22;;;;;;;;;;;;;;;12.60;47.69;98680.97;4925008;28;98091;-67
2023/02/25 00:03:52;;;;;;;;;;;;;;;12.59;47.57;98676.69;4915024;28;98161;-67
2023/02/25 00:06:18;;;;;;;;;;;;;;;12.59;47.59;98671.28;4952064;28;99500;-67
2023/02/25 00:08:44;;;;;;;;;;;;;;;12.59;47.53;98665.09;4906486;28;98048;-67
2023/02/25 00:11:11;;;;;;;;;;;;;;;12.57;47.84;98665.38;4910566;28;98393;-66
2023/02/25 00:13:38;;;;;;;;;;;;;;;12.57;47.64;98670.00;4919887;28;98345;-67
2023/02/25 00:16:05;;;;;;;;;;;;;;;12.56;47.79;98671.91;4914770;28;98077;-66
2023/02/25 00:18:31;;;;;;;;;;;;;;;12.56;47.75;98671.13;4924546;28;98169;-68
2023/02/25 00:20:58;;;;;;;;;;;;;;;12.54;47.59;98668.75;4940016;28;98127;-67
2023/02/25 00:23:24;;;;;;;;;;;;;;;12.53;47.53;98667.94;4905916;28;97942;-67
2023/02/25 00:26:01;;;;;;;;;;;;;;;12.54;47.67;98668.75;4908504;28;98085;-67
2023/02/25 00:28:27;;;;;;;;;;;;;;;12.53;47.57;98667.16;4925039;28;106780;-67
2023/02/25 00:30:54;;;;;;;;;;;;;;;12.52;47.58;98666.38;4920045;28;98107;-67
2023/02/25 00:33:20;;;;;;;;;;;;;;;12.53;47.68;98672.56;4916561;28;99156;-67
2023/02/25 00:35:48;;;;;;;;;;;;;;;12.51;47.61;98658.59;4934697;28;98160;-68
2023/02/25 00:38:14;;;;;;;;;;;;;;;12.52;47.75;98657.47;4938306;28;98194;-67
2023/02/25 00:40:40;;;;;;;;;;;;;;;12.51;47.68;98650.47;4921716;28;99766;-67
2023/02/25 00:43:07;;;;;;;;;;;;;;;12.49;47.67;98653.50;4924820;28;98508;-68
2023/02/25 00:45:33;;;;;;;;;;;;;;;12.50;47.77;98651.59;4909878;28;97900;-67
2023/02/25 00:47:59;;;;;;;;;;;;;;;12.49;47.86;98648.09;4906988;28;98132;-67
2023/02/25 00:50:25;;;;;;;;;;;;;;;12.49;47.74;98647.28;4913453;28;98286;-67
2023/02/25 00:52:51;;;;;;;;;;;;;;;12.50;47.67;98643.50;4939553;28;100270;-67
2023/02/25 00:55:17;;;;;;;;;;;;;;;12.48;47.70;98635.69;4924286;28;98108;-67
2023/02/25 00:57:43;;;;;;;;;;;;;;;12.48;47.57;98635.69;4920317;28;99369;-68
2023/02/25 01:00:15;;;;;;;;;;;;;;;12.47;47.76;98634.13;4940169;28;97965;-67
2023/02/25 01:02:44;;;;;;;;;;;;;;;12.47;47.66;98630.63;4923085;28;98885;-67
2023/02/25 01:05:12;;;;;;;;;;;;;;;12.46;47.67;98629.84;4913493;28;97906;-68
2023/02/25 01:07:38;;;;;;;;;;;;;;;12.46;47.73;98627.13;4909186;28;98398;-67
2023/02/25 01:10:05;;;;;;;;;;;;;;;12.46;47.50;98629.06;4903936;28;98362;-67
2023/02/25 01:12:32;;;;;;;;;;;;;;;12.45;47.75;98635.53;4915210;28;98040;-67
2023/02/25 01:14:58;;;;;;;;;;;;;;;12.45;47.81;98632.84;4926498;28;97898;-67
2023/02/25 01:17:24;;;;;;;;;;;;;;;12.45;47.70;98630.94;4924761;28;100042;-67
2023/02/25 01:19:51;;;;;;;;;;;;;;;12.43;47.79;98630.47;4913964;28;99191;-67
2023/02/25 01:22:17;;;;;;;;;;;;;;;12.43;47.91;98640.50;4920730;28;100608;-67
2023/02/25 01:24:43;;;;;;;;;;;;;;;12.43;47.85;98638.59;4929252;28;97869;-68
2023/02/25 01:27:10;;;;;;;;;;;;;;;12.43;47.91;98632.38;4926432;28;99592;-67
2023/02/25 01:29:40;;;;;;;;;;;;;;;12.43;47.77;98640.50;4940846;28;98010;-68
2023/02/25 01:32:08;;;;;;;;;;;;;;;12.43;47.51;98640.50;4918540;28;98020;-68
2023/02/25 01:34:34;;;;;;;;;;;;;;;12.42;47.91;98642.41;4913674;28;98206;-68
2023/02/25 01:37:00;;;;;;;;;;;;;;;12.43;47.77;98637.78;4942668;28;98157;-67
2023/02/25 01:39:27;;;;;;;;;;;;;;;12.42;47.84;98634.31;4928647;28;97972;-68
2023/02/25 01:41:54;;;;;;;;;;;;;;;12.42;47.51;98637.00;4912942;28;97990;-68
2023/02/25 01:44:24;;;;;;;;;;;;;;;12.41;47.83;98629.19;4922893;28;98583;-67
2023/02/25 01:46:51;;;;;;;;;;;;;;;12.42;47.72;98631.59;4939963;28;98149;-67
2023/02/25 01:49:19;;;;;;;;;;;;;;;12.42;47.67;98630.81;4927391;28;98317;-67
2023/02/25 01:51:46;;;;;;;;;;;;;;;12.41;47.75;98623.81;4930184;28;99782;-67
2023/02/25 01:54:12;;;;;;;;;;;;;;;12.40;47.80;98625.72;4922799;28;98097;-67
2023/02/25 01:56:40;;;;;;;;;;;;;;;12.41;47.61;98631.91;4923014;28;100083;-67
2023/02/25 01:59:06;;;;;;;;;;;;;;;12.40;47.76;98620.31;4938633;28;97855;-67
2023/02/25 02:01:34;;;;;;;;;;;;;;;12.40;47.53;98625.72;4913562;28;98092;-67
2023/02/25 02:04:02;;;;;;;;;;;;;;;12.40;47.65;98625.72;4925486;28;98113;-67
2023/02/25 02:06:32;;;;;;;;;;;;;;;12.38;47.70;98605.53;4911104;28;99410;-66
2023/02/25 02:08:59;;;;;;;;;;;;;;;12.39;47.71;98617.94;4934958;28;98250;-66
2023/02/25 02:11:25;;;;;;;;;;;;;;;12.38;47.71;98611.75;4924803;28;98520;-66
2023/02/25 02:13:53;;;;;;;;;;;;;;;12.38;47.58;98617.16;4941935;28;99296;-66
2023/02/25 02:16:43;;;;;;;;;;;;;;;12.37;47.53;98615.53;4923860;28;98253;-66
2023/02/25 02:19:27;;;;;;;;;;;;;;;12.36;47.75;98608.56;4926566;28;97976;-66
2023/02/25 02:22:13;;;;;;;;;;;;;;;12.37;48.17;98603.94;4923918;28;99953;-67
2023/02/25 02:24:53;;;;;;;;;;;;;;;12.35;47.69;98595.38;4926533;28;99655;-66
2023/02/25 02:27:28;;;;;;;;;;;;;;;12.34;47.66;98605.41;4919194;28;98167;-66
2023/02/25 02:30:03;;;;;;;;;;;;;;;12.34;47.69;98596.47;4933974;28;98098;-66
2023/02/25 02:32:48;;;;;;;;;;;;;;;12.33;47.56;98600.31;4939658;28;98067;-66
2023/02/25 02:35:22;;;;;;;;;;;;;;;12.32;47.52;98593.34;4929497;28;98150;-67
2023/02/25 02:37:56;;;;;;;;;;;;;;;12.32;47.69;98599.53;4911386;28;98364;-66
2023/02/25 02:40:40;;;;;;;;;;;;;;;12.31;47.56;98602.56;4925020;28;98079;-66
2023/02/25 02:43:10;;;;;;;;;;;;;;;12.31;47.60;98599.84;4927434;28;99537;-66
2023/02/25 02:45:49;;;;;;;;;;;;;;;12.30;47.58;98601.78;4923844;28;98139;-66
2023/02/25 02:48:24;;;;;;;;;;;;;;;12.30;47.55;98607.16;4922555;28;98474;-66
2023/02/25 02:51:13;;;;;;;;;;;;;;;12.29;47.61;98606.34;4927774;28;99031;-66
2023/02/25 02:53:41;;;;;;;;;;;;;;;12.28;47.78;98615.59;4927398;28;99408;-66
2023/02/25 02:56:08;;;;;;;;;;;;;;;12.27;47.72;98600.50;4912823;28;98055;-66
2023/02/25 02:58:56;;;;;;;;;;;;;;;12.26;47.52;98609.72;4929038;28;98124;-67
2023/02/25 03:01:30;;;;;;;;;;;;;;;12.26;47.67;98617.00;4940618;28;98096;-66
2023/02/25 03:04:04;;;;;;;;;;;;;;;12.25;47.77;98623.53;4936216;28;97985;-66
2023/02/25 03:06:54;;;;;;;;;;;;;;;12.25;47.52;98643.22;4914866;28;98296;-67
2023/02/25 03:09:25;;;;;;;;;;;;;;;12.25;47.70;98626.22;4908220;28;99096;-66
2023/02/25 03:11:51;;;;;;;;;;;;;;;12.23;47.68;98637.38;4912633;28;98446;-66
2023/02/25 03:14:17;;;;;;;;;;;;;;;12.23;47.65;98645.47;4906398;28;98561;-66
2023/02/25 03:16:50;;;;;;;;;;;;;;;12.22;47.63;98652.00;4904959;28;98680;-66
2023/02/25 03:19:46;;;;;;;;;;;;;;;12.21;47.64;98645.00;4937219;28;99120;-66
2023/02/25 03:22:14;;;;;;;;;;;;;;;12.21;47.64;98653.09;4936837;28;98039;-65
2023/02/25 03:25:13;;;;;;;;;;;;;;;12.21;47.79;98652.31;4905605;28;98545;-66
2023/02/25 03:27:42;;;;;;;;;;;;;;;12.18;47.65;98640.25;4915017;28;98030;-66
2023/02/25 03:30:34;;;;;;;;;;;;;;;12.17;47.68;98646.75;4918401;28;98171;-66
2023/02/25 03:33:09;;;;;;;;;;;;;;;12.17;47.78;98652.16;4913179;28;98136;-66
2023/02/25 03:35:35;;;;;;;;;;;;;;;12.17;47.83;98651.38;4907793;28;112210;-66
2023/02/25 03:38:08;;;;;;;;;;;;;;;12.16;47.59;98658.69;4891118;28;124710;-66
2023/02/25 03:40:35;;;;;;;;;;;;;;;12.16;47.61;98660.59;4936967;28;99515;-66
2023/02/25 03:43:05;;;;;;;;;;;;;;;12.15;47.74;98665.19;4907832;28;98304;-66
2023/02/25 03:45:33;;;;;;;;;;;;;;;12.13;47.55;98667.41;4909505;28;98150;-66
2023/02/25 03:47:59;;;;;;;;;;;;;;;12.13;47.79;98663.91;4892660;28;98496;-66
2023/02/25 03:50:29;;;;;;;;;;;;;;;12.13;47.75;98672.03;4890319;28;98825;-66
2023/02/25 03:52:55;;;;;;;;;;;;;;;12.13;47.77;98666.63;4891315;28;98292;-66
2023/02/25 03:55:21;;;;;;;;;;;;;;;12.11;47.76;98675.06;4900014;28;98094;-67
2023/02/25 03:57:48;;;;;;;;;;;;;;;12.10;47.82;98673.44;4899997;28;97883;-67
2023/02/25 04:00:21;;;;;;;;;;;;;;;12.10;47.68;98678.06;4915180;28;99160;-67
2023/02/25 04:02:48;;;;;;;;;;;;;;;12.09;47.72;98682.69;4921878;28;98253;-66
2023/02/25 04:05:14;;;;;;;;;;;;;;;12.08;47.69;98685.72;4913864;28;100115;-66
2023/02/25 04:07:41;;;;;;;;;;;;;;;12.07;47.63;98684.91;4922934;28;100375;-66
2023/02/25 04:10:07;;;;;;;;;;;;;;;12.07;47.66;98690.31;4892300;28;99371;-67
2023/02/25 04:12:34;;;;;;;;;;;;;;;12.07;47.58;98687.63;4908606;28;99414;-67
2023/02/25 04:15:00;;;;;;;;;;;;;;;12.08;47.67;98699.22;4913058;28;98242;-67
2023/02/25 04:17:26;;;;;;;;;;;;;;;12.06;47.52;98698.72;4904040;28;98320;-68
2023/02/25 04:19:52;;;;;;;;;;;;;;;12.07;47.58;98703.03;4929058;28;98868;-67
2023/02/25 04:22:18;;;;;;;;;;;;;;;12.04;47.76;98702.53;4923314;28;98177;-67
2023/02/25 04:24:44;;;;;;;;;;;;;;;12.04;47.84;98690.94;4955481;28;99560;-67
2023/02/25 04:27:10;;;;;;;;;;;;;;;12.03;47.76;98695.56;4910013;28;99376;-67
2023/02/25 04:29:36;;;;;;;;;;;;;;;12.02;47.73;98693.97;4927756;28;98369;-67
2023/02/25 04:32:02;;;;;;;;;;;;;;;12.03;47.54;98697.47;4913959;28;98562;-67
2023/02/25 04:34:28;;;;;;;;;;;;;;;12.03;47.76;98694.78;4914840;28;106571;-67
2023/02/25 04:36:54;;;;;;;;;;;;;;;12.01;47.70;98697.78;4917969;28;98279;-67
2023/02/25 04:39:21;;;;;;;;;;;;;;;12.01;47.74;98691.59;4920463;28;98405;-68
2023/02/25 04:41:47;;;;;;;;;;;;;;;12.01;47.64;98695.06;4927550;28;98079;-67
2023/02/25 04:44:13;;;;;;;;;;;;;;;12.01;47.61;98699.69;4945939;28;98084;-67
2023/02/25 04:46:40;;;;;;;;;;;;;;;12.01;47.77;98699.69;4943705;28;98056;-67
2023/02/25 04:49:07;;;;;;;;;;;;;;;11.99;47.75;98694.63;4909941;28;100605;-67
2023/02/25 04:51:33;;;;;;;;;;;;;;;11.98;47.78;98698.41;4911601;28;98082;-67
2023/02/25 04:53:59;;;;;;;;;;;;;;;11.99;47.58;98700.00;4942641;28;98637;-67
2023/02/25 04:56:25;;;;;;;;;;;;;;;11.99;47.73;98699.22;4941706;28;98178;-67
2023/02/25 04:58:51;;;;;;;;;;;;;;;11.99;47.67;98693.81;4911247;28;99350;-67
2023/02/25 05:01:17;;;;;;;;;;;;;;;11.98;47.79;98698.41;4929366;28;98149;-67
2023/02/25 05:03:43;;;;;;;;;;;;;;;11.98;47.59;98705.72;4932487;28;98387;-67
2023/02/25 05:06:09;;;;;;;;;;;;;;;11.96;47.64;98703.34;4928718;28;98531;-67
2023/02/25 05:08:36;;;;;;;;;;;;;;;11.97;47.72;98701.44;4924761;28;98192;-67
2023/02/25 05:11:02;;;;;;;;;;;;;;;11.97;47.64;98704.91;4909126;28;98083;-67
2023/02/25 05:13:28;;;;;;;;;;;;;;;11.96;47.65;98703.34;4905159;28;98127;-67
2023/02/25 05:16:11;;;;;;;;;;;;;;;11.97;47.62;98710.31;4924375;28;98266;-67
2023/02/25 05:18:39;;;;;;;;;;;;;;;11.98;47.58;98708.41;4931863;28;98205;-67
2023/02/25 05:21:08;;;;;;;;;;;;;;;11.97;47.59;98714.94;4925597;28;98243;-67
2023/02/25 05:23:35;;;;;;;;;;;;;;;11.98;47.69;98713.81;4910393;28;98201;-67
2023/02/25 05:26:01;;;;;;;;;;;;;;;11.98;47.65;98713.81;4927223;28;98051;-67
2023/02/25 05:28:27;;;;;;;;;;;;;;;11.99;47.55;98718.91;4910652;28;98794;-67
2023/02/25 05:30:54;;;;;;;;;;;;;;;11.98;47.71;98725.41;4912290;28;97955;-67
2023/02/25 05:33:20;;;;;;;;;;;;;;;11.98;47.62;98714.59;4920817;28;99421;-67
2023/02/25 05:35:46;;;;;;;;;;;;;;;12.00;47.71;98727.81;4911554;28;109913;-67
2023/02/25 05:38:12;;;;;;;;;;;;;;;12.00;47.67;98733.22;4929049;28;97928;-67
2023/02/25 05:40:38;;;;;;;;;;;;;;;11.99;47.56;98727.00;4911209;28;98010;-67
2023/02/25 05:43:04;;;;;;;;;;;;;;;12.00;47.58;98733.22;4927358;28;98540;-67
2023/02/25 05:45:31;;;;;;;;;;;;;;;12.00;47.72;98738.59;4910300;28;113017;-67
2023/02/25 05:47:57;;;;;;;;;;;;;;;12.01;47.44;98737.50;4941801;28;98573;-67
2023/02/25 05:50:23;;;;;;;;;;;;;;;11.99;47.63;98737.81;4928858;28;99233;-67
2023/02/25 05:52:50;;;;;;;;;;;;;;;12.01;47.55;98745.59;4924510;28;98549;-67
2023/02/25 05:55:16;;;;;;;;;;;;;;;12.00;47.55;98749.41;4905494;28;98205;-67
2023/02/25 05:57:42;;;;;;;;;;;;;;;12.01;47.55;98748.28;4918759;28;98302;-67
2023/02/25 06:00:10;;;;;;;;;;;;;;;12.01;47.59;98759.88;4913737;28;98217;-67
2023/02/25 06:02:36;;;;;;;;;;;;;;;12.01;47.63;98756.38;4928261;28;98035;-67
2023/02/25 06:05:02;;;;;;;;;;;;;;;12.00;47.74;98763.69;4920139;28;98728;-67
2023/02/25 06:07:30;;;;;;;;;;;;;;;12.01;47.62;98764.50;4926357;28;97931;-67
2023/02/25 06:09:59;;;;;;;;;;;;;;;12.01;47.62;98775.28;4923249;28;98184;-67
2023/02/25 06:12:27;;;;;;;;;;;;;;;12.00;47.44;98773.72;4922049;28;99473;-66
2023/02/25 06:14:53;;;;;;;;;;;;;;;12.00;47.58;98782.59;4921640;28;112808;-67
2023/02/25 06:17:19;;;;;;;;;;;;;;;12.00;47.67;98784.50;4922924;28;98218;-66
2023/02/25 06:19:45;;;;;;;;;;;;;;;11.99;47.69;98789.13;4902978;28;98604;-67
2023/02/25 06:22:12;;;;;;;;;;;;;;;12.00;47.67;98792.63;4906838;28;98186;-67
2023/02/25 06:24:39;;;;;;;;;;;;;;;12.00;47.69;98798.00;4925459;28;98250;-67
2023/02/25 06:27:05;;;;;;;;;;;;;;;12.01;47.68;98797.69;4906369;28;98817;-67
2023/02/25 06:29:31;;;;;;;;;;;;;;;12.02;47.62;98801.19;4926254;28;98295;-66
2023/02/25 06:31:57;;;;;;;;;;;;;;;12.00;47.60;98809.59;4927903;28;98090;-67
2023/02/25 06:34:23;;;;;;;;;;;;;;;11.99;47.56;98812.63;4907938;28;99964;-66
2023/02/25 06:36:50;;;;;;;;;;;;;;;11.99;47.67;98812.63;4920169;28;100231;-67
2023/02/25 06:39:16;;;;;;;;;;;;;;;12.01;47.67;98819.28;4906670;28;99090;-67
2023/02/25 06:41:42;;;;;;;;;;;;;;;12.00;47.62;98825.03;4919694;28;98220;-67
2023/02/25 06:44:08;;;;;;;;;;;;;;;11.99;47.46;98826.94;4906111;28;98169;-67
2023/02/25 06:46:34;;;;;;;;;;;;;;;12.02;47.70;98833.59;4908702;28;98080;-67
2023/02/25 06:49:00;;;;;;;;;;;;;;;12.02;47.59;98838.97;4949465;28;98299;-67
2023/02/25 06:51:27;;;;;;;;;;;;;;;12.04;47.61;98845.66;4941328;28;98119;-67
2023/02/25 06:53:53;;;;;;;;;;;;;;;12.05;47.63;98846.47;4925582;28;98042;-67
2023/02/25 06:56:20;;;;;;;;;;;;;;;12.06;47.40;98847.25;4905866;28;98107;-67
2023/02/25 06:58:46;;;;;;;;;;;;;;;12.05;47.53;98862.66;4925853;28;98005;-67
2023/02/25 07:01:14;;;;;;;;;;;;;;;12.08;47.40;98850.44;4918081;28;98046;-67
2023/02/25 07:03:40;;;;;;;;;;;;;;;12.10;47.45;98859.00;4906146;28;98433;-67
2023/02/25 07:06:07;;;;;;;;;;;;;;;12.14;47.54;98859.97;4916732;28;98353;-68
2023/02/25 07:08:33;;;;;;;;;;;;;;;12.17;47.45;98873.63;4932915;28;98099;-67
2023/02/25 07:11:18;;;;;;;;;;;;;;;12.20;47.50;98870.31;4915864;28;100877;-68
2023/02/25 07:13:46;;;;;;;;;;;;;;;12.25;47.41;98878.25;4953921;28;98870;-67
2023/02/25 07:16:12;;;;;;;;;;;;;;;12.31;47.19;98887.03;4904316;28;98094;-67
2023/02/25 07:18:39;;;;;;;;;;;;;;;12.35;47.35;98885.28;4906955;28;98150;-67
2023/02/25 07:21:05;;;;;;;;;;;;;;;12.38;47.27;98891.94;4938490;28;98114;-67
2023/02/25 07:23:31;;;;;;;;;;;;;;;12.45;47.28;98886.84;4905578;28;100086;-68
2023/02/25 07:26:01;;;;;;;;;;;;;;;12.47;47.38;98892.75;4945161;28;99288;-67
2023/02/25 07:28:27;;;;;;;;;;;;;;;12.51;47.17;98908.00;4907583;28;98766;-67
2023/02/25 07:30:53;;;;;;;;;;;;;;;12.51;47.15;98901.81;4926837;28;98010;-67
2023/02/25 07:33:19;;;;;;;;;;;;;;;12.52;47.12;98906.09;4922119;28;99935;-67
2023/02/25 07:35:45;;;;;;;;;;;;;;;12.55;47.33;98907.38;4918420;28;106239;-67
2023/02/25 07:38:11;;;;;;;;;;;;;;;12.57;47.18;98897.81;4913366;28;97905;-67
2023/02/25 07:40:40;;;;;;;;;;;;;;;12.57;47.20;98914.03;4948702;28;98022;-66
2023/02/25 07:43:06;;;;;;;;;;;;;;;12.57;47.14;98915.94;4907100;28;98305;-66
2023/02/25 07:45:33;;;;;;;;;;;;;;;12.58;47.43;98917.56;4935052;28;98045;-66
2023/02/25 07:47:59;;;;;;;;;;;;;;;12.59;47.18;98913.75;4934845;28;99376;-66
2023/02/25 07:50:25;;;;;;;;;;;;;;;12.60;47.19;98929.63;4918745;28;99786;-66
2023/02/25 07:52:51;;;;;;;;;;;;;;;12.59;47.33;98925.34;4899853;28;98004;-66
2023/02/25 07:55:17;;;;;;;;;;;;;;;12.64;47.36;98927.88;4922031;28;97985;-67
2023/02/25 07:57:44;;;;;;;;;;;;;;;12.69;47.07;98926.94;4924218;28;99253;-66
2023/02/25 08:00:10;;;;;;;;;;;;;;;12.70;47.32;98932.03;4910047;28;98385;-66
2023/02/25 08:02:37;;;;;;;;;;;;;;;12.70;47.33;98934.75;4917879;28;98961;-66
2023/02/25 08:05:03;;;;;;;;;;;;;;;12.71;47.07;98943.63;4921189;28;99354;-66
2023/02/25 08:07:29;;;;;;;;;;;;;;;12.75;47.30;98937.28;4939066;28;98897;-66
2023/02/25 08:09:56;;;;;;;;;;;;;;;12.76;47.06;98944.25;4939778;28;98355;-66
2023/02/25 08:12:22;;;;;;;;;;;;;;;12.78;47.12;98941.25;4934871;28;98228;-66
2023/02/25 08:14:48;;;;;;;;;;;;;;;12.78;46.88;98943.97;4905823;28;99524;-66
2023/02/25 08:17:14;;;;;;;;;;;;;;;12.80;47.42;98949.84;4905880;28;98422;-66
2023/02/25 08:19:40;;;;;;;;;;;;;;;12.84;47.06;98942.66;4927033;28;98156;-66
2023/02/25 08:22:10;;;;;;;;;;;;;;;12.87;47.24;98949.38;4907392;28;98209;-66
2023/02/25 08:24:39;;;;;;;;;;;;;;;12.92;46.95;98943.78;4907156;28;99610;-66
2023/02/25 08:27:08;;;;;;;;;;;;;;;12.95;46.94;98945.84;4922035;28;98036;-66
2023/02/25 08:29:38;;;;;;;;;;;;;;;12.97;46.99;98952.56;4913149;28;98975;-66
2023/02/25 08:32:07;;;;;;;;;;;;;;;12.99;46.95;98949.50;4908103;28;97967;-66
2023/02/25 08:34:33;;;;;;;;;;;;;;;13.03;47.13;98955.88;4907124;28;98324;-66
2023/02/25 08:37:00;;;;;;;;;;;;;;;13.06;47.03;98957.16;4904132;28;98470;-66
2023/02/25 08:39:27;;;;;;;;;;;;;;;13.07;46.95;98964.16;4925020;28;99408;-66
2023/02/25 08:41:54;;;;;;;;;;;;;;;13.06;47.01;98974.19;4921469;28;98567;-66
2023/02/25 08:44:20;;;;;;;;;;;;;;;13.02;47.03;98976.72;4905691;28;98143;-66
2023/02/25 08:46:46;;;;;;;;;;;;;;;13.00;47.36;98983.56;4904226;28;98789;-66
2023/02/25 08:49:12;;;;;;;;;;;;;;;13.01;47.36;98979.75;4910775;28;98340;-66
2023/02/25 08:51:39;;;;;;;;;;;;;;;12.98;47.06;98983.88;4922389;28;98992;-66
2023/02/25 08:54:07;;;;;;;;;;;;;;;12.99;47.27;98985.47;4908847;28;98256;-67
2023/02/25 08:56:34;;;;;;;;;;;;;;;13.02;47.11;98987.53;4906548;28;98629;-67
2023/02/25 08:59:00;;;;;;;;;;;;;;;13.14;47.18;98991.50;4919684;28;99273;-67
2023/02/25 09:01:43;;;;;;;;;;;;;;;13.29;47.14;98982.94;4950853;28;99710;-66
2023/02/25 09:04:20;;;;;;;;;;;;;;;13.39;46.95;98987.22;4924760;28;98382;-66
2023/02/25 09:06:47;;;;;;;;;;;;;;;13.44;47.03;98998.69;4888818;28;100925;-66
2023/02/25 09:09:16;;;;;;;;;;;;;;;13.55;46.91;99001.81;4914121;28;98163;-66
2023/02/25 09:11:42;;;;;;;;;;;;;;;13.67;46.83;98995.75;4917980;28;100148;-67
2023/02/25 09:14:09;;;;;;;;;;;;;;;13.76;46.39;98996.53;4923146;28;99533;-67
2023/02/25 09:16:35;;;;;;;;;;;;;;;13.86;46.76;98998.88;4929950;28;98576;-67
2023/02/25 09:19:01;;;;;;;;;;;;;;;13.93;46.76;99003.78;4933781;28;127206;-67
2023/02/25 09:21:27;;;;;;;;;;;;;;;13.91;46.59;99008.72;4939905;28;98049;-67
2023/02/25 09:23:54;;;;;;;;;;;;;;;14.02;46.66;99017.28;4906608;28;105268;-67
2023/02/25 09:26:21;;;;;;;;;;;;;;;14.13;46.21;99015.81;4924976;28;98553;-67
2023/02/25 09:28:47;;;;;;;;;;;;;;;14.16;46.44;99018.69;4912459;28;100007;-67
2023/02/25 09:31:14;;;;;;;;;;;;;;;14.17;46.45;99014.84;4928741;28;98678;-67
2023/02/25 09:33:41;;;;;;;;;;;;;;;14.15;46.78;99019.81;4927326;28;98278;-67
2023/02/25 09:36:12;;;;;;;;;;;;;;;14.17;46.71;99022.19;4908499;28;99316;-67
2023/02/25 09:38:39;;;;;;;;;;;;;;;14.13;46.92;99035.56;4924190;28;99076;-67
2023/02/25 09:41:27;;;;;;;;;;;;;;;14.11;47.04;99037.00;4905189;28;98176;-66
2023/02/25 09:44:21;;;;;;;;;;;;;;;14.03;46.85;99040.56;4938529;28;99568;-66
2023/02/25 09:46:56;;;;;;;;;;;;;;;14.05;46.75;99046.47;4934625;28;100064;-67
2023/02/25 09:49:24;;;;;;;;;;;;;;;14.14;46.60;99047.22;4921250;28;99198;-66
2023/02/25 09:51:57;;;;;;;;;;;;;;;14.18;46.59;99054.34;4937943;28;99678;-67
2023/02/25 09:54:38;;;;;;;;;;;;;;;14.20;46.41;99052.13;4908550;28;98013;-67
2023/02/25 09:57:05;;;;;;;;;;;;;;;14.28;46.46;99055.94;4933698;28;98353;-66
2023/02/25 09:59:31;;;;;;;;;;;;;;;14.30;46.64;99067.22;4907433;28;98354;-67
2023/02/25 10:02:12;;;;;;;;;;;;;;;14.33;46.35;99063.88;4904104;28;97969;-66
2023/02/25 10:04:41;;;;;;;;;;;;;;;14.33;46.73;99065.78;4935594;28;97907;-66
2023/02/25 10:07:14;;;;;;;;;;;;;;;14.32;46.48;99070.41;4927070;28;98704;-67
2023/02/25 10:10:08;;;;;;;;;;;;;;;14.27;46.58;99081.44;4924972;28;98249;-67
2023/02/25 10:12:37;;;;;;;;;;;;;;;14.33;46.71;99080.13;4922654;28;99141;-66
2023/02/25 10:15:20;;;;;;;;;;;;;;;14.37;46.26;99083.78;4943353;28;98197;-66
2023/02/25 10:18:24;;;;;;;;;;;;;;;14.42;46.36;99093.66;4930593;28;98017;-66
2023/02/25 10:21:17;;;;;;;;;;;;;;;14.77;45.89;99096.22;4935471;28;98479;-67
2023/02/25 10:23:55;;;;;;;;;;;;;;;15.07;45.76;99092.38;4927676;28;98056;-66
2023/02/25 10:26:28;;;;;;;;;;;;;;;15.01;46.04;99103.72;4936209;28;98908;-66
2023/02/25 10:28:58;;;;;;;;;;;;;;;15.15;45.81;99099.66;4907064;28;100065;-66
2023/02/25 10:31:24;;;;;;;;;;;;;;;15.23;45.95;99103.44;4902722;28;98380;-67
2023/02/25 10:33:51;;;;;;;;;;;;;;;15.34;45.87;99112.78;4933754;28;97990;-66
2023/02/25 10:36:30;;;;;;;;;;;;;;;15.27;46.15;99117.13;4902917;28;98858;-66
2023/02/25 10:38:56;;;;;;;;;;;;;;;15.21;46.24;99117.34;4923205;28;98323;-66
2023/02/25 10:41:26;;;;;;;;;;;;;;;15.37;46.07;99122.97;4905238;28;98238;-67
2023/02/25 10:43:53;;;;;;;;;;;;;;;15.42;46.15;99119.25;4922533;28;98024;-66
2023/02/25 10:46:32;;;;;;;;;;;;;;;15.55;45.90;99120.09;4905669;28;98171;-67
2023/02/25 10:49:13;;;;;;;;;;;;;;;15.54;45.70;99132.09;4940243;28;98269;-67
2023/02/25 10:51:55;;;;;;;;;;;;;;;15.56;46.02;99132.53;4905521;28;98346;-67
2023/02/25 10:54:22;;;;;;;;;;;;;;;15.42;46.35;99138.25;4916114;28;98785;-67
2023/02/25 10:56:48;;;;;;;;;;;;;;;15.40;46.25;99145.94;4936629;28;98289;-66
2023/02/25 10:59:25;;;;;;;;;;;;;;;15.41;46.40;99140.19;4921220;28;98055;-66
2023/02/25 11:01:54;;;;;;;;;;;;;;;15.40;46.41;99141.28;4909222;28;117112;-66
2023/02/25 11:04:24;;;;;;;;;;;;;;;15.36;46.34;99134.16;4918099;28;98171;-66
2023/02/25 11:06:50;;;;;;;;;;;;;;;15.30;46.23;99155.28;4922845;28;98251;-66
2023/02/25 11:09:19;;;;;;;;;;;;;;;15.27;46.43;99153.22;4919459;28;97969;-66
2023/02/25 11:12:07;;;;;;;;;;;;;;;15.23;46.48;99163.13;4948902;28;98270;-66
2023/02/25 11:14:36;;;;;;;;;;;;;;;15.21;46.51;99165.41;4914696;28;99826;-66
2023/02/25 11:17:19;;;;;;;;;;;;;;;15.27;46.50;99164.06;4933183;28;98495;-66
2023/02/25 11:19:52;;;;;;;;;;;;;;;15.33;46.55;99170.13;4944934;28;98003;-66
2023/02/25 11:22:34;;;;;;;;;;;;;;;15.31;46.14;99175.06;4908008;28;97999;-66
2023/02/25 11:25:01;;;;;;;;;;;;;;;15.25;46.52;99181.81;4935541;28;98096;-66
2023/02/25 11:27:37;;;;;;;;;;;;;;;15.19;46.52;99181.22;4917884;28;98406;-66
2023/02/25 11:30:06;;;;;;;;;;;;;;;15.16;46.45;99179.94;4932310;28;98180;-66
2023/02/25 11:32:32;;;;;;;;;;;;;;;15.16;46.70;99182.66;4918028;28;98103;-67
2023/02/25 11:35:06;;;;;;;;;;;;;;;15.16;46.48;99188.06;4922599;28;97943;-67
2023/02/25 11:37:40;;;;;;;;;;;;;;;15.13;46.61;99191.47;4903947;28;98799;-66
2023/02/25 11:40:23;;;;;;;;;;;;;;;15.10;46.49;99200.25;4921879;28;98363;-67
2023/02/25 11:43:04;;;;;;;;;;;;;;;15.13;46.50;99188.75;4924080;28;98122;-66
2023/02/25 11:45:32;;;;;;;;;;;;;;;15.09;46.55;99195.16;4935203;28;98213;-66
2023/02/25 11:47:59;;;;;;;;;;;;;;;15.12;46.40;99198.00;4905890;28;98091;-67
2023/02/25 11:50:44;;;;;;;;;;;;;;;15.16;46.83;99198.94;4924338;28;98000;-66
2023/02/25 11:53:42;;;;;;;;;;;;;;;15.23;46.24;99204.66;4908997;28;98347;-67
2023/02/25 11:56:47;;;;;;;;;;;;;;;15.25;46.53;99198.91;4911986;28;98115;-66
2023/02/25 11:59:30;;;;;;;;;;;;;;;15.34;46.16;99205.06;4923176;28;98540;-66
2023/02/25 12:02:23;;;;;;;;;;;;;;;15.37;46.53;99204.41;4926989;28;98298;-66
2023/02/25 12:05:24;;;;;;;;;;;;;;;15.42;46.18;99208.84;4946510;28;98507;-67
2023/02/25 12:07:56;;;;;;;;;;;;;;;15.42;46.33;99206.13;4947040;28;98742;-66
2023/02/25 12:10:41;;;;;;;;;;;;;;;15.35;46.43;99212.09;4929351;28;98269;-67
2023/02/25 12:13:25;;;;;;;;;;;;;;;15.27;46.50;99209.44;4929612;28;98479;-67
2023/02/25 12:16:19;;;;;;;;;;;;;;;15.24;46.41;99213.59;4952264;28;98148;-67
2023/02/25 12:18:57;;;;;;;;;;;;;;;15.13;46.74;99225.94;4938759;28;98491;-66
2023/02/25 12:21:50;;;;;;;;;;;;;;;15.05;46.53;99234.91;4951935;28;98522;-66
2023/02/25 12:24:40;;;;;;;;;;;;;;;15.01;46.88;99234.75;4936272;28;99298;-66
2023/02/25 12:27:35;;;;;;;;;;;;;;;14.91;46.93;99240.56;4945812;28;100139;-66
2023/02/25 12:30:25;;;;;;;;;;;;;;;14.86;46.74;99248.91;4920981;28;98185;-67
2023/02/25 12:33:19;;;;;;;;;;;;;;;14.79;47.02;99246.69;4939791;28;98104;-66
2023/02/25 12:35:48;;;;;;;;;;;;;;;14.75;46.83;99243.03;4935273;28;98094;-66
2023/02/25 12:38:50;;;;;;;;;;;;;;;14.66;47.33;99255.81;4931248;28;98304;-68
2023/02/25 12:41:39;;;;;;;;;;;;;;;14.56;47.24;99258.88;4934242;28;98001;-66
2023/02/25 12:44:30;;;;;;;;;;;;;;;14.54;47.08;99269.22;4922351;28;100289;-67
2023/02/25 12:47:26;;;;;;;;;;;;;;;14.48;47.04;99272.09;4932603;28;98804;-66
2023/02/25 12:50:54;;;;;;;;;;;;;;;14.49;46.88;99275.63;4924451;28;98397;-66
2023/02/25 12:53:48;;;;;;;;;;;;;;;14.46;46.93;99276.22;4903032;28;98116;-66
2023/02/25 12:56:22;;;;;;;;;;;;;;;14.45;46.83;99280.06;4864685;28;98002;-66
2023/02/25 12:59:10;;;;;;;;;;;;;;;14.42;46.97;99277.97;4927927;28;98164;-66
2023/02/25 13:02:02;;;;;;;;;;;;;;;14.41;47.21;99285.31;4936958;28;101053;-66
2023/02/25 13:04:50;;;;;;;;;;;;;;;14.40;46.97;99283.75;4950702;28;97863;-66
2023/02/25 13:07:28;;;;;;;;;;;;;;;14.40;46.79;99283.75;4935298;28;98121;-66